Time;durP1;ratioP1;P1;durP2;ratioP2;P2;SDS_P1;SDS_P2;PMS_P1;PMS_P2;Temp;Humidity;BMP_temperature;BMP_pressure;BME280_temperature;BME280_humidity;BME280_pressure;Samples;Min_cycle;Max_cycle;Signal;HPM_P1;HPM_P2
2023/06/15 00:02:26;;;;;;;7.45;3.80;;;16.80;99.90;;;;;;5068498;28;20052;-60
2023/06/15 00:04:55;;;;;;;9.55;4.30;;;16.80;99.90;;;;;;5081969;28;20048;-59
2023/06/15 00:07:23;;;;;;;10.90;3.55;;;16.70;99.90;;;;;;5051094;28;20045;-64
2023/06/15 00:09:50;;;;;;;8.50;4.45;;;16.70;99.90;;;;;;5048798;28;20056;-63
2023/06/15 00:12:19;;;;;;;9.75;4.05;;;16.60;99.90;;;;;;5050352;28;20519;-60
2023/06/15 00:14:46;;;;;;;8.07;4.15;;;16.50;99.90;;;;;;5071853;28;20434;-62
2023/06/15 00:17:14;;;;;;;7.95;4.32;;;16.50;99.90;;;;;;5065226;28;20376;-60
2023/06/15 00:19:44;;;;;;;10.18;3.85;;;16.50;99.90;;;;;;5063010;28;20056;-61
2023/06/15 00:22:14;;;;;;;7.60;3.92;;;16.40;99.90;;;;;;5054529;28;20060;-61
2023/06/15 00:24:43;;;;;;;7.88;3.53;;;16.50;99.90;;;;;;5063340;28;20040;-61
2023/06/15 00:27:11;;;;;;;10.90;4.43;;;16.50;99.90;;;;;;5049992;28;20053;-60
2023/06/15 00:29:38;;;;;;;10.05;4.00;;;16.50;99.90;;;;;;5050801;28;20491;-61
2023/06/15 00:32:07;;;;;;;9.93;3.97;;;16.50;99.90;;;;;;5049363;28;20033;-62
2023/06/15 00:34:35;;;;;;;8.38;4.40;;;16.50;99.90;;;;;;5064885;28;20520;-60
2023/06/15 00:37:03;;;;;;;10.93;3.97;;;16.50;99.90;;;;;;5069929;28;20040;-65
2023/06/15 00:39:31;;;;;;;11.70;4.90;;;16.50;99.90;;;;;;5063311;28;20045;-66
2023/06/15 00:41:59;;;;;;;6.95;4.30;;;16.40;99.90;;;;;;5064116;28;20047;-62
2023/06/15 00:44:27;;;;;;;9.70;4.97;;;16.40;99.90;;;;;;5063717;28;20048;-60
2023/06/15 00:46:57;;;;;;;9.63;4.53;;;16.40;99.90;;;;;;5050001;28;20484;-60
2023/06/15 00:49:25;;;;;;;10.25;4.95;;;16.40;99.90;;;;;;5080182;28;20048;-62
2023/06/15 00:51:54;;;;;;;8.25;4.75;;;16.30;99.90;;;;;;5065696;28;20041;-61
2023/06/15 00:54:24;;;;;;;7.28;4.47;;;16.30;99.90;;;;;;5063281;28;20036;-61
2023/06/15 00:56:53;;;;;;;8.80;3.67;;;16.20;99.90;;;;;;5049727;28;20488;-61
2023/06/15 00:59:21;;;;;;;8.32;4.05;;;16.10;99.90;;;;;;5051879;28;20049;-62
2023/06/15 01:01:54;;;;;;;13.38;5.32;;;16.20;99.90;;;;;;5061900;28;20052;-60
2023/06/15 01:04:26;;;;;;;11.38;4.50;;;16.10;99.90;;;;;;5049191;28;20049;-67
2023/06/15 01:07:01;;;;;;;11.77;4.93;;;16.10;99.90;;;;;;5065557;28;20044;-67
2023/06/15 01:09:31;;;;;;;10.63;4.95;;;16.10;99.90;;;;;;5055266;28;20402;-66
2023/06/15 01:12:05;;;;;;;8.38;5.00;;;16.10;99.90;;;;;;5038268;28;20052;-65
2023/06/15 01:14:35;;;;;;;8.40;5.03;;;16.00;99.90;;;;;;5078229;28;20044;-64
2023/06/15 01:17:07;;;;;;;12.90;5.28;;;16.00;99.90;;;;;;5088833;28;20052;-63
2023/06/15 01:23:10;;;;;;;10.18;5.28;;;16.00;99.90;;;;;;5027913;28;20500;-64
2023/06/15 01:25:48;;;;;;;13.95;5.82;;;15.90;99.90;;;;;;5065967;28;20049;-59
2023/06/15 01:28:20;;;;;;;11.70;5.20;;;15.90;99.90;;;;;;5050258;28;20050;-64
2023/06/15 01:30:52;;;;;;;12.88;5.07;;;15.80;99.90;;;;;;5055127;28;20045;-59
2023/06/15 01:33:22;;;;;;;12.65;5.30;;;15.80;99.90;;;;;;5050935;28;20051;-60
2023/06/15 01:35:50;;;;;;;10.90;5.38;;;15.80;99.90;;;;;;5053347;28;20460;-58
2023/06/15 01:38:24;;;;;;;11.25;5.03;;;15.80;99.90;;;;;;5058866;28;20512;-58
2023/06/15 01:40:53;;;;;;;7.03;4.53;;;15.80;99.90;;;;;;5066578;28;20434;-65
2023/06/15 01:43:28;;;;;;;13.18;4.38;;;15.70;99.90;;;;;;5050738;28;20045;-66
2023/06/15 01:45:57;;;;;;;13.07;4.97;;;15.70;99.90;;;;;;5049582;28;20040;-66
2023/06/15 01:48:25;;;;;;;8.20;4.70;;;15.70;99.90;;;;;;5069449;28;20055;-66
2023/06/15 01:50:54;;;;;;;15.45;5.07;;;15.60;99.90;;;;;;5070587;28;20500;-67
2023/06/15 01:53:22;;;;;;;22.45;5.63;;;15.50;99.90;;;;;;5066213;28;20044;-67
2023/06/15 01:55:51;;;;;;;12.05;5.10;;;15.50;99.90;;;;;;5053094;28;20386;-66
2023/06/15 01:58:18;;;;;;;10.23;5.20;;;15.50;99.90;;;;;;5064665;28;20044;-65
2023/06/15 02:00:47;;;;;;;7.45;5.03;;;15.40;99.90;;;;;;5061890;28;20033;-60
2023/06/15 02:03:16;;;;;;;11.02;5.13;;;15.40;99.90;;;;;;5050560;28;20056;-66
2023/06/15 02:05:44;;;;;;;8.45;5.03;;;15.40;99.90;;;;;;5064604;28;20058;-67
2023/06/15 02:08:15;;;;;;;12.32;5.78;;;15.40;99.90;;;;;;5074913;28;20413;-66
2023/06/15 02:10:42;;;;;;;10.73;5.30;;;15.30;99.90;;;;;;5065636;28;20399;-65
2023/06/15 02:13:13;;;;;;;13.13;4.95;;;15.30;99.90;;;;;;5050329;28;20048;-65
2023/06/15 02:15:41;;;;;;;9.30;5.22;;;15.30;99.90;;;;;;5066144;28;20056;-67
2023/06/15 02:18:15;;;;;;;11.75;5.68;;;15.30;99.90;;;;;;5069622;28;20411;-66
2023/06/15 02:20:45;;;;;;;15.77;6.05;;;15.20;99.90;;;;;;5066241;28;20045;-60
2023/06/15 02:23:13;;;;;;;10.75;4.82;;;15.20;99.90;;;;;;5063484;28;20037;-59
2023/06/15 02:25:41;;;;;;;10.20;5.22;;;15.20;99.90;;;;;;5053481;28;20037;-59
2023/06/15 02:28:09;;;;;;;13.32;5.65;;;15.20;99.90;;;;;;5064695;28;20052;-65
2023/06/15 02:30:38;;;;;;;7.82;4.72;;;15.20;99.90;;;;;;5061350;28;20051;-59
2023/06/15 02:33:07;;;;;;;12.70;6.23;;;15.10;99.90;;;;;;5048473;28;20049;-60
2023/06/15 02:35:36;;;;;;;10.32;5.75;;;15.10;99.90;;;;;;5057112;28;20296;-59
2023/06/15 02:38:03;;;;;;;13.82;6.40;;;15.10;99.90;;;;;;5051605;28;20048;-60
2023/06/15 02:40:31;;;;;;;18.77;5.88;;;15.10;99.90;;;;;;5057917;28;20515;-62
2023/06/15 02:42:59;;;;;;;14.85;5.95;;;15.10;99.90;;;;;;5017052;28;20048;-59
2023/06/15 02:45:27;;;;;;;8.93;4.97;;;15.10;99.90;;;;;;5052831;28;20040;-58
2023/06/15 02:47:56;;;;;;;13.13;5.57;;;15.00;99.90;;;;;;5058994;28;20057;-59
2023/06/15 02:50:24;;;;;;;16.17;5.03;;;15.10;99.90;;;;;;5067892;28;20036;-59
2023/06/15 02:53:03;;;;;;;7.38;5.13;;;15.00;99.90;;;;;;5054897;28;20400;-59
2023/06/15 02:55:32;;;;;;;10.77;5.30;;;15.00;99.90;;;;;;5062068;28;20037;-66
2023/06/15 02:58:00;;;;;;;12.27;5.70;;;14.90;99.90;;;;;;5058215;28;20048;-65
2023/06/15 03:00:51;;;;;;;12.02;5.40;;;14.90;99.90;;;;;;5050062;28;20061;-59
2023/06/15 03:03:27;;;;;;;10.40;5.20;;;14.80;99.90;;;;;;5049946;28;20052;-64
2023/06/15 03:05:58;;;;;;;15.18;6.15;;;14.70;99.90;;;;;;5068100;28;20434;-59
2023/06/15 03:08:31;;;;;;;13.63;6.88;;;14.70;99.90;;;;;;5076246;28;20036;-60
2023/06/15 03:11:11;;;;;;;11.20;5.50;;;14.60;99.90;;;;;;5054778;28;20037;-59
2023/06/15 03:13:39;;;;;;;9.63;5.80;;;14.50;99.90;;;;;;5049624;28;20527;-58
2023/06/15 03:16:07;;;;;;;16.05;5.60;;;14.50;99.90;;;;;;5051659;28;20044;-58
2023/06/15 03:18:35;;;;;;;17.98;5.60;;;14.50;99.90;;;;;;5054029;28;20048;-59
2023/06/15 03:21:07;;;;;;;11.60;6.00;;;14.40;99.90;;;;;;5068362;28;20696;-58
2023/06/15 03:23:38;;;;;;;18.60;6.88;;;14.40;99.90;;;;;;5063641;28;20056;-58
2023/06/15 03:26:07;;;;;;;11.93;5.78;;;14.30;99.90;;;;;;5064930;28;20029;-60
2023/06/15 03:28:38;;;;;;;12.95;5.93;;;14.30;99.90;;;;;;5056496;28;20041;-60
2023/06/15 03:31:10;;;;;;;11.98;5.90;;;14.30;99.90;;;;;;5069621;28;20511;-58
2023/06/15 03:33:38;;;;;;;12.50;5.80;;;14.20;99.90;;;;;;5069077;28;20535;-59
2023/06/15 03:36:07;;;;;;;12.57;5.65;;;14.30;99.90;;;;;;5078723;28;20051;-58
2023/06/15 03:38:36;;;;;;;13.38;6.07;;;14.20;99.90;;;;;;5085736;28;20037;-59
2023/06/15 03:41:03;;;;;;;10.95;5.90;;;14.20;99.90;;;;;;5072010;28;20040;-59
2023/06/15 03:43:31;;;;;;;13.73;6.47;;;14.20;99.90;;;;;;5060549;28;20378;-60
2023/06/15 03:45:59;;;;;;;11.55;6.13;;;14.10;99.90;;;;;;5052416;28;20052;-59
2023/06/15 03:48:26;;;;;;;20.05;6.28;;;14.10;99.90;;;;;;5071006;28;20056;-58
2023/06/15 03:50:54;;;;;;;12.75;5.80;;;14.10;99.90;;;;;;5056979;28;20040;-61
2023/06/15 03:53:22;;;;;;;12.05;5.97;;;14.10;99.90;;;;;;5052609;28;20055;-58
2023/06/15 03:55:50;;;;;;;16.45;6.20;;;14.10;99.90;;;;;;5035918;28;20041;-59
2023/06/15 03:58:18;;;;;;;9.32;5.50;;;14.10;99.90;;;;;;5055564;28;20040;-57
2023/06/15 04:00:50;;;;;;;9.93;5.60;;;14.00;99.90;;;;;;5068069;28;20044;-59
2023/06/15 04:03:18;;;;;;;11.93;5.97;;;14.00;99.90;;;;;;5068106;28;20408;-64
2023/06/15 04:05:48;;;;;;;10.95;4.93;;;14.00;99.90;;;;;;5064774;28;20052;-64
2023/06/15 04:08:16;;;;;;;9.20;5.30;;;14.00;99.90;;;;;;5057175;28;20052;-67
2023/06/15 04:10:45;;;;;;;11.73;5.60;;;14.00;99.90;;;;;;5071983;28;20043;-59
2023/06/15 04:13:13;;;;;;;13.73;5.85;;;14.00;99.90;;;;;;5070226;28;20048;-61
2023/06/15 04:15:41;;;;;;;17.55;6.00;;;14.00;99.90;;;;;;5034371;28;20041;-58
2023/06/15 04:18:09;;;;;;;10.23;5.53;;;14.00;99.90;;;;;;5065645;28;20076;-58
2023/06/15 04:20:37;;;;;;;19.42;6.10;;;14.00;99.90;;;;;;5053835;28;20044;-58
2023/06/15 04:23:05;;;;;;;11.65;5.60;;;14.00;99.90;;;;;;5051665;28;20056;-58
2023/06/15 04:25:35;;;;;;;12.15;6.32;;;13.90;99.90;;;;;;5068522;28;20045;-60
2023/06/15 04:28:05;;;;;;;14.43;5.78;;;14.00;99.90;;;;;;5072443;28;20060;-58
2023/06/15 04:30:35;;;;;;;10.88;6.22;;;14.00;99.90;;;;;;5070741;28;20044;-58
2023/06/15 04:33:04;;;;;;;15.52;6.35;;;14.00;99.90;;;;;;5064335;28;20037;-61
2023/06/15 04:35:35;;;;;;;13.18;6.20;;;13.90;99.90;;;;;;5069403;28;20037;-58
2023/06/15 04:38:05;;;;;;;;;;;13.90;99.90;;;;;;5045999;28;20412;-58
2023/06/15 04:40:33;;;;;;;10.23;5.38;;;13.90;99.90;;;;;;5066158;28;19927;-58
2023/06/15 04:43:02;;;;;;;14.57;6.80;;;13.90;99.90;;;;;;5069024;28;20037;-59
2023/06/15 04:45:31;;;;;;;8.65;6.13;;;13.90;99.90;;;;;;5050789;28;20488;-57
2023/06/15 04:47:59;;;;;;;10.88;6.07;;;13.90;99.90;;;;;;5055589;28;20041;-61
2023/06/15 04:50:30;;;;;;;10.43;5.82;;;13.90;99.90;;;;;;5068493;28;20047;-60
2023/06/15 04:52:58;;;;;;;10.13;5.35;;;14.00;99.90;;;;;;5063840;28;20048;-60
2023/06/15 04:55:26;;;;;;;10.93;5.30;;;13.90;99.90;;;;;;5068651;28;20040;-63
2023/06/15 04:57:55;;;;;;;8.45;4.85;;;14.00;99.90;;;;;;5047388;28;20045;-65
2023/06/15 05:00:23;;;;;;;7.90;5.15;;;14.00;99.90;;;;;;5061763;28;20040;-63
2023/06/15 05:02:57;;;;;;;12.80;5.65;;;14.00;99.90;;;;;;5051626;28;20059;-59
2023/06/15 05:05:26;;;;;;;9.52;5.65;;;14.00;99.90;;;;;;5069857;28;20052;-59
2023/06/15 05:07:55;;;;;;;11.95;5.80;;;14.00;99.90;;;;;;5075608;28;20055;-58
2023/06/15 05:10:23;;;;;;;12.30;5.38;;;14.00;99.90;;;;;;5063525;28;20063;-63
2023/06/15 05:13:12;;;;;;;8.38;4.88;;;14.00;99.90;;;;;;5048407;28;20041;-62
2023/06/15 05:15:40;;;;;;;11.13;5.10;;;14.00;99.90;;;;;;5065468;28;20055;-61
2023/06/15 05:18:08;;;;;;;13.70;5.47;;;14.00;99.90;;;;;;5068118;28;20040;-59
2023/06/15 05:20:37;;;;;;;8.63;4.97;;;14.10;99.90;;;;;;5066936;28;20055;-59
2023/06/15 05:23:04;;;;;;;8.15;5.03;;;14.10;99.90;;;;;;5066197;28;20043;-60
2023/06/15 05:25:33;;;;;;;10.32;5.40;;;14.10;99.90;;;;;;5050693;28;20052;-63
2023/06/15 05:28:00;;;;;;;10.55;5.15;;;14.10;99.90;;;;;;5052100;28;20056;-61
2023/06/15 05:30:31;;;;;;;15.85;5.43;;;14.10;99.90;;;;;;5051017;28;20052;-62
2023/06/15 05:32:58;;;;;;;12.18;5.53;;;14.20;99.90;;;;;;5050992;28;20044;-63
2023/06/15 05:35:26;;;;;;;13.82;5.05;;;14.20;99.90;;;;;;5070521;28;20040;-65
2023/06/15 05:37:54;;;;;;;11.40;4.70;;;14.20;99.90;;;;;;5070935;28;20408;-59
2023/06/15 05:40:22;;;;;;;9.85;4.75;;;14.30;99.90;;;;;;5061210;28;20056;-59
2023/06/15 05:42:50;;;;;;;13.60;5.03;;;14.30;99.90;;;;;;5055477;28;20052;-59
2023/06/15 05:45:19;;;;;;;12.65;4.80;;;14.40;99.90;;;;;;5058512;28;20401;-58
2023/06/15 05:47:48;;;;;;;11.45;4.97;;;14.40;99.90;;;;;;5060086;28;20045;-58
2023/06/15 05:50:15;;;;;;;9.20;4.72;;;14.50;99.90;;;;;;5057471;28;20040;-60
2023/06/15 05:52:43;;;;;;;13.93;6.32;;;14.50;99.90;;;;;;5067750;28;20051;-58
2023/06/15 05:55:11;;;;;;;8.30;4.50;;;14.60;99.90;;;;;;5088902;28;20040;-59
2023/06/15 05:57:39;;;;;;;14.88;4.57;;;14.70;99.90;;;;;;5066952;28;20487;-66
2023/06/15 06:00:07;;;;;;;10.63;5.82;;;14.80;99.90;;;;;;5061664;28;20586;-65
2023/06/15 06:02:42;;;;;;;11.02;5.22;;;15.00;99.90;;;;;;5066774;28;20309;-66
2023/06/15 06:05:21;;;;;;;9.38;4.70;;;15.00;99.90;;;;;;5081224;28;20052;-62
2023/06/15 06:07:49;;;;;;;9.88;4.85;;;15.20;99.90;;;;;;5053320;28;20056;-66
2023/06/15 06:10:18;;;;;;;7.10;4.55;;;15.40;99.90;;;;;;5053998;28;20059;-65
2023/06/15 06:12:48;;;;;;;7.78;4.57;;;15.40;99.90;;;;;;5065336;28;20044;-66
2023/06/15 06:15:16;;;;;;;12.70;5.07;;;15.50;99.90;;;;;;5064316;28;20044;-63
2023/06/15 06:17:46;;;;;;;12.00;5.32;;;15.50;99.90;;;;;;5060276;28;20063;-63
2023/06/15 06:20:35;;;;;;;14.00;5.35;;;15.70;99.90;;;;;;5053238;28;20048;-62
2023/06/15 06:23:03;;;;;;;10.85;5.38;;;15.70;99.90;;;;;;5061728;28;20047;-58
2023/06/15 06:25:31;;;;;;;11.32;5.25;;;15.80;99.90;;;;;;5061498;28;20052;-61
2023/06/15 06:28:00;;;;;;;9.70;5.03;;;15.90;99.90;;;;;;5064924;28;20542;-61
2023/06/15 06:30:27;;;;;;;10.70;5.45;;;16.00;99.90;;;;;;5066300;28;20036;-63
2023/06/15 06:32:56;;;;;;;13.70;6.05;;;16.00;99.90;;;;;;5061243;28;20048;-62
2023/06/15 06:35:28;;;;;;;9.70;5.97;;;16.10;99.90;;;;;;5060296;28;20044;-62
2023/06/15 06:37:56;;;;;;;9.57;5.13;;;16.20;99.90;;;;;;5088226;28;20043;-62
2023/06/15 06:40:25;;;;;;;12.90;5.50;;;16.20;99.90;;;;;;5064764;28;20049;-60
2023/06/15 06:42:54;;;;;;;15.60;5.38;;;16.40;99.90;;;;;;5058527;28;20060;-63
2023/06/15 06:45:21;;;;;;;12.02;5.47;;;16.40;99.90;;;;;;5061971;28;20059;-58
2023/06/15 06:47:49;;;;;;;10.93;4.88;;;16.50;99.90;;;;;;5052795;28;20036;-58
2023/06/15 06:50:18;;;;;;;15.38;4.95;;;16.60;99.90;;;;;;5071875;28;20469;-58
2023/06/15 06:52:46;;;;;;;8.65;5.55;;;16.60;99.90;;;;;;5073844;28;20052;-59
2023/06/15 06:55:14;;;;;;;17.75;5.38;;;16.70;99.90;;;;;;5068133;28;20048;-58
2023/06/15 06:57:42;;;;;;;12.23;5.28;;;16.70;99.90;;;;;;5058798;28;20048;-59
2023/06/15 07:00:10;;;;;;;12.90;4.63;;;16.80;99.90;;;;;;5065851;28;20048;-59
2023/06/15 07:02:39;;;;;;;8.88;4.60;;;16.90;99.90;;;;;;5061085;28;20047;-59
2023/06/15 07:05:07;;;;;;;6.85;4.10;;;17.00;99.90;;;;;;5063469;28;20056;-66
2023/06/15 07:07:34;;;;;;;9.55;5.03;;;17.10;99.90;;;;;;5065048;28;20049;-58
2023/06/15 07:10:02;;;;;;;9.23;4.97;;;17.10;99.90;;;;;;5067337;28;20049;-58
2023/06/15 07:12:30;;;;;;;11.70;4.82;;;17.20;99.90;;;;;;5066843;28;20049;-59
2023/06/15 07:14:58;;;;;;;11.57;4.50;;;17.30;99.90;;;;;;5052133;28;20049;-61
2023/06/15 07:17:25;;;;;;;12.35;4.30;;;17.90;99.90;;;;;;5064550;28;20503;-61
2023/06/15 07:19:54;;;;;;;10.55;4.60;;;17.40;99.90;;;;;;5077021;28;20471;-69
2023/06/15 07:22:21;;;;;;;14.18;4.38;;;17.50;99.90;;;;;;5085558;28;20496;-65
2023/06/15 07:24:50;;;;;;;10.60;4.30;;;17.70;99.90;;;;;;5069257;28;20048;-64
2023/06/15 07:27:19;;;;;;;7.97;3.83;;;17.80;99.90;;;;;;5070735;28;20037;-59
2023/06/15 07:29:47;;;;;;;9.82;4.00;;;17.80;99.90;;;;;;5063409;28;20049;-58
2023/06/15 07:32:15;;;;;;;8.63;4.43;;;17.90;99.90;;;;;;5055970;28;20037;-59
2023/06/15 07:34:43;;;;;;;11.13;4.53;;;18.00;99.90;;;;;;5087530;28;20395;-59
2023/06/15 07:37:11;;;;;;;9.52;4.20;;;18.10;99.90;;;;;;5088215;28;20044;-59
2023/06/15 07:39:38;;;;;;;12.48;4.20;;;18.20;99.90;;;;;;5068757;28;20055;-62
2023/06/15 07:42:06;;;;;;;8.25;4.28;;;18.20;99.90;;;;;;5070707;28;20036;-59
2023/06/15 07:44:35;;;;;;;12.15;4.25;;;18.40;99.90;;;;;;5050660;28;20049;-60
2023/06/15 07:47:03;;;;;;;9.30;4.63;;;18.40;99.90;;;;;;5064284;28;20049;-61
2023/06/15 07:49:32;;;;;;;9.52;4.45;;;18.50;99.90;;;;;;5052840;28;20052;-58
2023/06/15 07:52:13;;;;;;;8.07;4.25;;;18.60;99.90;;;;;;5070527;28;20041;-59
2023/06/15 07:54:41;;;;;;;8.20;3.90;;;18.70;99.90;;;;;;5066553;28;20045;-58
2023/06/15 07:57:10;;;;;;;7.20;3.85;;;18.90;99.90;;;;;;5067418;28;20052;-59
2023/06/15 07:59:37;;;;;;;8.50;4.05;;;18.90;99.90;;;;;;5058859;28;20060;-59
2023/06/15 08:02:20;;;;;;;14.30;4.40;;;18.90;99.90;;;;;;5060178;28;20049;-60
2023/06/15 08:04:48;;;;;;;9.75;4.03;;;19.10;99.90;;;;;;5051843;28;20059;-58
2023/06/15 08:07:16;;;;;;;10.18;4.20;;;19.10;99.90;;;;;;5065030;28;20037;-59
2023/06/15 08:09:43;;;;;;;9.32;3.78;;;19.20;99.90;;;;;;5052382;28;20044;-65
2023/06/15 08:12:11;;;;;;;6.05;3.92;;;19.30;99.90;;;;;;5059063;28;20519;-59
2023/06/15 08:14:39;;;;;;;8.38;4.82;;;19.40;99.90;;;;;;5058371;28;20048;-61
2023/06/15 08:17:07;;;;;;;9.38;4.45;;;19.50;99.90;;;;;;5058664;28;20557;-60
2023/06/15 08:19:36;;;;;;;8.20;4.55;;;19.50;99.90;;;;;;5062473;28;20041;-60
2023/06/15 08:22:04;;;;;;;14.07;5.28;;;19.60;99.90;;;;;;5049891;28;20049;-59
2023/06/15 08:24:32;;;;;;;12.23;5.53;;;19.70;99.90;;;;;;5065036;28;20079;-60
2023/06/15 08:27:00;;;;;;;8.10;4.55;;;19.80;99.90;;;;;;5064110;28;20060;-61
2023/06/15 08:29:27;;;;;;;9.02;4.68;;;19.80;99.90;;;;;;5051187;28;20503;-60
2023/06/15 08:31:56;;;;;;;6.50;3.92;;;19.90;99.90;;;;;;5063083;28;20048;-60
2023/06/15 08:34:24;;;;;;;11.48;4.40;;;20.00;99.90;;;;;;5053809;28;20056;-70
2023/06/15 08:36:52;;;;;;;8.32;4.40;;;20.10;99.90;;;;;;5070277;28;20051;-71
2023/06/15 08:39:21;;;;;;;7.50;4.22;;;20.20;99.90;;;;;;5055721;28;20053;-63
2023/06/15 08:41:49;;;;;;;18.00;5.22;;;20.20;99.90;;;;;;5049945;28;20033;-62
2023/06/15 08:44:19;;;;;;;11.30;4.70;;;20.30;99.90;;;;;;5065523;28;20365;-67
2023/06/15 08:46:47;;;;;;;9.18;4.10;;;20.30;99.90;;;;;;5048691;28;20043;-69
2023/06/15 08:49:15;;;;;;;18.40;5.20;;;20.40;99.90;;;;;;5061265;28;20040;-70
2023/06/15 08:51:44;;;;;;;8.57;5.40;;;20.50;99.90;;;;;;5053737;28;20626;-70
2023/06/15 08:54:12;;;;;;;10.18;5.00;;;20.60;99.90;;;;;;5064687;28;20049;-71
2023/06/15 08:56:40;;;;;;;10.77;5.03;;;20.60;99.90;;;;;;5052102;28;20052;-69
2023/06/15 08:59:08;;;;;;;9.68;4.55;;;20.60;99.90;;;;;;5050197;28;20045;-69
2023/06/15 09:01:43;;;;;;;12.02;5.07;;;20.80;99.90;;;;;;5048519;28;20053;-68
2023/06/15 09:04:11;;;;;;;6.55;4.90;;;20.90;99.90;;;;;;5065426;28;20530;-63
2023/06/15 09:06:40;;;;;;;7.57;5.15;;;20.90;99.90;;;;;;5063362;28;20047;-60
2023/06/15 09:09:09;;;;;;;7.85;4.70;;;21.00;99.90;;;;;;5059608;28;20048;-59
2023/06/15 09:11:41;;;;;;;8.93;4.00;;;21.00;99.90;;;;;;5061648;28;20487;-60
2023/06/15 09:14:10;;;;;;;6.55;3.75;;;21.10;99.90;;;;;;5062599;28;20062;-59
2023/06/15 09:16:39;;;;;;;6.43;4.38;;;21.20;99.90;;;;;;5051626;28;20068;-58
2023/06/15 09:19:11;;;;;;;8.13;3.10;;;21.30;99.90;;;;;;5062543;28;20071;-60
2023/06/15 09:21:41;;;;;;;6.47;3.85;;;21.30;99.90;;;;;;5074280;28;20300;-60
2023/06/15 09:24:09;;;;;;;5.18;2.75;;;21.50;99.90;;;;;;5056541;28;20051;-59
2023/06/15 09:26:40;;;;;;;6.20;3.30;;;21.60;99.90;;;;;;5048428;28;20049;-60
2023/06/15 09:29:11;;;;;;;8.02;3.08;;;21.70;99.50;;;;;;5063544;28;20049;-59
2023/06/15 09:31:40;;;;;;;5.53;2.88;;;21.80;99.40;;;;;;5044874;28;20049;-59
2023/06/15 09:34:12;;;;;;;5.63;3.55;;;21.80;99.00;;;;;;5062580;28;20040;-59
2023/06/15 09:36:49;;;;;;;4.72;3.10;;;22.00;99.30;;;;;;5057494;28;20044;-61
2023/06/15 09:39:23;;;;;;;3.47;2.75;;;22.00;98.00;;;;;;5054852;28;20056;-59
2023/06/15 09:42:01;;;;;;;7.13;3.80;;;22.10;97.80;;;;;;5049362;28;20427;-59
2023/06/15 09:44:29;;;;;;;6.03;3.22;;;22.20;97.70;;;;;;5062589;28;20060;-59
2023/06/15 09:46:59;;;;;;;4.18;2.75;;;22.30;97.70;;;;;;5055198;28;20055;-59
2023/06/15 09:49:28;;;;;;;5.63;3.22;;;22.40;97.20;;;;;;5062712;28;20072;-60
2023/06/15 09:51:57;;;;;;;8.70;3.10;;;22.60;97.00;;;;;;5058445;28;20049;-59
2023/06/15 09:54:29;;;;;;;5.75;3.00;;;22.70;96.90;;;;;;5083351;28;20044;-63
2023/06/15 09:56:57;;;;;;;4.00;2.70;;;22.80;96.10;;;;;;5049914;28;20049;-59
2023/06/15 09:59:25;;;;;;;6.18;3.72;;;22.90;95.80;;;;;;5045918;28;20055;-61
2023/06/15 10:01:55;;;;;;;8.40;3.75;;;23.00;96.00;;;;;;5050545;28;20044;-59
2023/06/15 10:04:28;;;;;;;7.45;3.60;;;23.10;96.10;;;;;;5058436;28;20055;-60
2023/06/15 10:07:01;;;;;;;5.57;3.38;;;23.20;95.80;;;;;;5055058;28;20048;-61
2023/06/15 10:09:35;;;;;;;7.65;3.45;;;23.40;95.60;;;;;;5050274;28;20037;-60
2023/06/15 10:12:11;;;;;;;5.10;3.08;;;23.40;94.60;;;;;;5062097;28;20051;-64
2023/06/15 10:15:04;;;;;;;8.20;3.65;;;23.60;93.50;;;;;;5053025;28;20477;-70
2023/06/15 10:17:37;;;;;;;6.85;3.47;;;23.60;93.60;;;;;;5051096;28;20040;-60
2023/06/15 10:20:16;;;;;;;6.97;3.63;;;23.70;93.80;;;;;;5060897;28;20056;-70
2023/06/15 10:23:08;;;;;;;5.80;2.80;;;23.90;93.30;;;;;;5064406;28;20044;-59
2023/06/15 10:25:36;;;;;;;5.82;2.53;;;24.00;93.40;;;;;;5049378;28;20679;-62
2023/06/15 10:28:09;;;;;;;7.40;3.40;;;24.00;91.70;;;;;;5058727;28;20048;-59
2023/06/15 10:30:49;;;;;;;6.95;3.45;;;24.20;92.30;;;;;;5053599;28;20044;-65
2023/06/15 10:33:24;;;;;;;5.28;3.55;;;24.30;92.10;;;;;;5057962;28;20056;-60
2023/06/15 10:36:13;;;;;;;6.05;2.90;;;24.00;91.10;;;;;;5052338;28;20051;-59
2023/06/15 10:39:05;;;;;;;4.22;3.15;;;24.40;91.20;;;;;;5055796;28;20392;-59
2023/06/15 10:41:33;;;;;;;8.63;4.10;;;24.50;91.10;;;;;;5048470;28;20041;-58
2023/06/15 10:44:03;;;;;;;8.27;3.60;;;24.60;90.20;;;;;;5059211;28;20048;-59
2023/06/15 10:46:34;;;;;;;6.68;3.10;;;24.70;90.00;;;;;;5048711;28;20057;-61
2023/06/15 10:49:06;;;;;;;8.93;3.35;;;24.80;90.20;;;;;;5053367;28;20041;-60
2023/06/15 10:51:49;;;;;;;8.02;3.03;;;24.90;90.10;;;;;;5064130;28;20041;-60
2023/06/15 10:54:21;;;;;;;6.90;3.28;;;25.00;89.00;;;;;;5057495;28;20489;-60
2023/06/15 10:56:57;;;;;;;4.55;2.78;;;25.20;88.70;;;;;;5049097;28;20040;-59
2023/06/15 10:59:45;;;;;;;10.30;3.20;;;25.30;89.20;;;;;;5050949;28;20040;-60
2023/06/15 11:02:31;;;;;;;6.50;3.33;;;25.50;86.50;;;;;;5064206;28;21853;-59
2023/06/15 11:05:04;;;;;;;5.68;2.47;;;25.50;86.70;;;;;;5074948;28;20564;-59
2023/06/15 11:07:36;;;;;;;6.70;3.20;;;25.60;84.90;;;;;;5068769;28;20046;-59
2023/06/15 11:10:17;;;;;;;6.65;2.60;;;25.70;84.90;;;;;;5071773;28;20051;-64
2023/06/15 11:12:49;;;;;;;4.95;2.88;;;25.80;84.30;;;;;;5064300;28;20480;-67
2023/06/15 11:15:16;;;;;;;7.05;4.10;;;25.80;83.90;;;;;;5058161;28;20044;-59
2023/06/15 11:17:57;;;;;;;8.32;3.47;;;25.90;83.30;;;;;;5052432;28;20041;-59
2023/06/15 11:20:38;;;;;;;4.65;3.00;;;25.90;82.90;;;;;;5071491;28;20403;-60
2023/06/15 11:23:16;;;;;;;5.18;3.30;;;26.00;82.20;;;;;;5069212;28;20049;-60
2023/06/15 11:25:48;;;;;;;5.85;3.22;;;26.00;80.80;;;;;;5073970;28;20040;-60
2023/06/15 11:28:24;;;;;;;7.32;3.35;;;26.10;81.70;;;;;;5060581;28;20056;-59
2023/06/15 11:30:57;;;;;;;9.20;3.03;;;26.30;81.60;;;;;;5069393;28;20041;-60
2023/06/15 11:33:27;;;;;;;6.97;3.05;;;26.40;81.20;;;;;;5075451;28;20058;-60
2023/06/15 11:35:56;;;;;;;;;;;26.50;78.80;;;;;;5079357;28;20784;-59
2023/06/15 11:38:29;;;;;;;11.07;3.58;;;26.50;77.80;;;;;;5070099;28;19920;-66
2023/06/15 11:41:10;;;;;;;6.50;2.95;;;26.50;77.00;;;;;;5051366;28;20381;-70
2023/06/15 11:43:41;;;;;;;7.05;3.50;;;26.60;77.90;;;;;;5064448;28;20048;-60
2023/06/15 11:46:14;;;;;;;7.43;3.10;;;26.80;76.30;;;;;;5064104;28;20099;-61
2023/06/15 11:48:43;;;;;;;6.82;3.08;;;26.80;77.40;;;;;;5069938;28;20045;-61
2023/06/15 11:51:12;;;;;;;5.38;3.10;;;27.00;76.50;;;;;;5066151;28;20048;-60
2023/06/15 11:53:41;;;;;;;7.72;3.20;;;27.20;76.10;;;;;;5059686;28;20044;-61
2023/06/15 11:56:16;;;;;;;4.63;2.85;;;27.40;75.70;;;;;;5050510;28;20049;-64
2023/06/15 11:58:46;;;;;;;5.88;3.40;;;27.60;75.10;;;;;;5056768;28;20053;-64
2023/06/15 12:01:15;;;;;;;;;;;27.80;75.30;;;;;;5049484;28;20041;-62
2023/06/15 12:03:44;;;;;;;4.93;3.38;;;28.00;73.70;;;;;;5059990;28;19932;-64
2023/06/15 12:06:29;;;;;;;9.32;3.58;;;28.10;73.20;;;;;;5077228;28;20499;-63
2023/06/15 12:08:57;;;;;;;8.88;2.97;;;28.30;73.00;;;;;;5073226;28;20395;-71
2023/06/15 12:11:26;;;;;;;4.25;2.83;;;28.50;73.00;;;;;;5068730;28;20041;-72
2023/06/15 12:14:07;;;;;;;6.40;3.08;;;28.60;72.60;;;;;;5077620;28;20048;-62
2023/06/15 12:16:36;;;;;;;5.15;2.80;;;28.80;71.40;;;;;;5055689;28;20424;-62
2023/06/15 12:19:08;;;;;;;12.25;3.03;;;28.90;70.60;;;;;;5065258;28;20469;-67
2023/06/15 12:21:38;;;;;;;5.95;3.70;;;29.00;70.30;;;;;;5064455;28;20056;-69
2023/06/15 12:24:26;;;;;;;11.40;3.55;;;29.30;69.60;;;;;;5060687;28;20511;-61
2023/06/15 12:26:57;;;;;;;5.57;3.03;;;29.60;68.60;;;;;;5054165;28;20041;-60
2023/06/15 12:29:26;;;;;;;5.88;3.50;;;29.80;68.20;;;;;;5069070;28;20400;-61
2023/06/15 12:31:55;;;;;;;5.97;3.40;;;29.90;66.90;;;;;;5061145;28;20049;-62
2023/06/15 12:34:26;;;;;;;8.63;3.10;;;29.90;67.60;;;;;;5068275;28;20048;-65
2023/06/15 12:36:57;;;;;;;7.43;3.15;;;29.90;67.60;;;;;;5078305;28;20047;-65
2023/06/15 12:39:27;;;;;;;8.85;2.92;;;29.90;66.70;;;;;;5059765;28;20542;-70
2023/06/15 12:42:01;;;;;;;5.28;3.20;;;30.20;66.20;;;;;;5052467;28;20132;-69
2023/06/15 12:44:31;;;;;;;4.82;3.25;;;30.30;66.00;;;;;;5064969;28;20067;-71
2023/06/15 12:46:58;;;;;;;6.18;3.00;;;30.60;65.70;;;;;;5068448;28;20053;-70
2023/06/15 12:49:27;;;;;;;7.28;2.97;;;30.80;64.80;;;;;;5067433;28;20052;-65
2023/06/15 12:51:54;;;;;;;6.47;3.22;;;31.20;64.40;;;;;;5059763;28;20049;-62
2023/06/15 12:54:23;;;;;;;7.85;3.95;;;31.40;62.50;;;;;;5073035;28;20037;-63
2023/06/15 12:56:50;;;;;;;3.78;3.03;;;31.70;62.60;;;;;;5063472;28;20048;-66
2023/06/15 12:59:18;;;;;;;7.07;2.92;;;31.70;61.00;;;;;;5066549;28;20037;-63
2023/06/15 13:01:46;;;;;;;6.35;2.95;;;31.70;61.10;;;;;;5069457;28;20487;-61
2023/06/15 13:04:15;;;;;;;7.15;3.17;;;31.60;60.00;;;;;;5068998;28;20044;-61